sensor_id;sensor_type;location;lat;lon;timestamp;temperature;humidity
61253;DHT22;47127;47.516;8.596;2024-03-02T00:00:38;6.30;99.90
61253;DHT22;47127;47.516;8.596;2024-03-02T00:03:06;6.40;99.90
61253;DHT22;47127;47.516;8.596;2024-03-02T00:05:32;6.40;99.90
61253;DHT22;47127;47.516;8.596;2024-03-02T00:07:58;6.50;99.90
61253;DHT22;47127;47.516;8.596;2024-03-02T00:10:38;6.50;99.90
61253;DHT22;47127;47.516;8.596;2024-03-02T00:13:07;6.50;99.90
61253;DHT22;47127;47.516;8.596;2024-03-02T00:15:40;6.50;99.90
61253;DHT22;47127;47.516;8.596;2024-03-02T00:18:11;6.50;99.90
61253;DHT22;47127;47.516;8.596;2024-03-02T00:20:38;6.50;99.90
61253;DHT22;47127;47.516;8.596;2024-03-02T00:23:09;6.50;99.90
61253;DHT22;47127;47.516;8.596;2024-03-02T00:25:42;6.40;99.90
61253;DHT22;47127;47.516;8.596;2024-03-02T00:28:17;6.40;99.90
61253;DHT22;47127;47.516;8.596;2024-03-02T00:33:21;6.30;99.90
61253;DHT22;47127;47.516;8.596;2024-03-02T00:35:47;6.30;99.90
61253;DHT22;47127;47.516;8.596;2024-03-02T00:38:14;6.30;99.90
61253;DHT22;47127;47.516;8.596;2024-03-02T00:40:43;6.30;99.90
61253;DHT22;47127;47.516;8.596;2024-03-02T00:45:49;6.40;99.90
61253;DHT22;47127;47.516;8.596;2024-03-02T00:48:17;6.40;99.90
61253;DHT22;47127;47.516;8.596;2024-03-02T00:50:43;6.40;99.90
61253;DHT22;47127;47.516;8.596;2024-03-02T00:53:12;6.40;99.90
61253;DHT22;47127;47.516;8.596;2024-03-02T00:55:38;6.30;99.90
61253;DHT22;47127;47.516;8.596;2024-03-02T00:58:05;6.30;99.90
61253;DHT22;47127;47.516;8.596;2024-03-02T01:00:30;6.20;99.90
61253;DHT22;47127;47.516;8.596;2024-03-02T01:02:56;6.20;99.90
61253;DHT22;47127;47.516;8.596;2024-03-02T01:05:21;6.30;99.90
61253;DHT22;47127;47.516;8.596;2024-03-02T01:07:47;6.40;99.90
61253;DHT22;47127;47.516;8.596;2024-03-02T01:10:12;6.40;99.90
61253;DHT22;47127;47.516;8.596;2024-03-02T01:12:38;6.30;99.90
61253;DHT22;47127;47.516;8.596;2024-03-02T01:15:06;6.20;99.90
61253;DHT22;47127;47.516;8.596;2024-03-02T01:17:33;6.20;99.90
61253;DHT22;47127;47.516;8.596;2024-03-02T01:19:59;6.10;99.90
61253;DHT22;47127;47.516;8.596;2024-03-02T01:22:24;6.10;99.90
61253;DHT22;47127;47.516;8.596;2024-03-02T01:24:51;6.10;99.90
61253;DHT22;47127;47.516;8.596;2024-03-02T01:27:16;6.10;99.90
61253;DHT22;47127;47.516;8.596;2024-03-02T01:29:42;6.10;99.90
61253;DHT22;47127;47.516;8.596;2024-03-02T01:32:07;6.00;99.90
61253;DHT22;47127;47.516;8.596;2024-03-02T01:34:33;6.00;99.90
61253;DHT22;47127;47.516;8.596;2024-03-02T01:36:58;6.10;99.90
61253;DHT22;47127;47.516;8.596;2024-03-02T01:39:24;6.10;99.90
61253;DHT22;47127;47.516;8.596;2024-03-02T01:41:49;6.10;99.90
61253;DHT22;47127;47.516;8.596;2024-03-02T01:44:15;6.10;99.90
61253;DHT22;47127;47.516;8.596;2024-03-02T01:46:41;6.10;99.90
61253;DHT22;47127;47.516;8.596;2024-03-02T01:49:06;6.10;99.90
61253;DHT22;47127;47.516;8.596;2024-03-02T01:51:32;6.00;99.90
61253;DHT22;47127;47.516;8.596;2024-03-02T01:53:57;5.90;99.90
61253;DHT22;47127;47.516;8.596;2024-03-02T01:56:23;5.90;99.90
61253;DHT22;47127;47.516;8.596;2024-03-02T01:58:49;5.90;99.90
61253;DHT22;47127;47.516;8.596;2024-03-02T02:01:15;5.90;99.90
61253;DHT22;47127;47.516;8.596;2024-03-02T02:03:43;5.90;99.90
61253;DHT22;47127;47.516;8.596;2024-03-02T02:06:09;5.90;99.90
61253;DHT22;47127;47.516;8.596;2024-03-02T02:08:36;5.80;99.90
61253;DHT22;47127;47.516;8.596;2024-03-02T02:11:02;5.70;99.90
61253;DHT22;47127;47.516;8.596;2024-03-02T02:13:28;5.60;99.90
61253;DHT22;47127;47.516;8.596;2024-03-02T02:15:53;5.60;99.90
61253;DHT22;47127;47.516;8.596;2024-03-02T02:18:19;5.60;99.90
61253;DHT22;47127;47.516;8.596;2024-03-02T02:20:44;5.50;99.90
61253;DHT22;47127;47.516;8.596;2024-03-02T02:23:10;5.50;99.90
61253;DHT22;47127;47.516;8.596;2024-03-02T02:25:36;5.50;99.90
61253;DHT22;47127;47.516;8.596;2024-03-02T02:28:01;5.60;99.90
61253;DHT22;47127;47.516;8.596;2024-03-02T02:30:31;5.60;99.90
61253;DHT22;47127;47.516;8.596;2024-03-02T02:32:57;5.60;99.90
61253;DHT22;47127;47.516;8.596;2024-03-02T02:35:23;5.60;99.90
61253;DHT22;47127;47.516;8.596;2024-03-02T02:37:54;5.50;99.90
61253;DHT22;47127;47.516;8.596;2024-03-02T02:40:19;5.40;99.90
61253;DHT22;47127;47.516;8.596;2024-03-02T02:42:45;5.40;99.90
61253;DHT22;47127;47.516;8.596;2024-03-02T02:45:11;5.40;99.90
61253;DHT22;47127;47.516;8.596;2024-03-02T02:47:38;5.40;99.90
61253;DHT22;47127;47.516;8.596;2024-03-02T02:50:04;5.40;99.90
61253;DHT22;47127;47.516;8.596;2024-03-02T02:52:34;5.50;99.90
61253;DHT22;47127;47.516;8.596;2024-03-02T02:55:01;5.40;99.90
61253;DHT22;47127;47.516;8.596;2024-03-02T02:57:28;5.30;99.90
61253;DHT22;47127;47.516;8.596;2024-03-02T02:59:56;5.30;99.90
61253;DHT22;47127;47.516;8.596;2024-03-02T03:02:22;5.30;99.90
61253;DHT22;47127;47.516;8.596;2024-03-02T03:04:48;5.30;99.90
61253;DHT22;47127;47.516;8.596;2024-03-02T03:07:13;5.40;99.90
61253;DHT22;47127;47.516;8.596;2024-03-02T03:09:39;5.40;99.90
61253;DHT22;47127;47.516;8.596;2024-03-02T03:12:05;5.30;99.90
61253;DHT22;47127;47.516;8.596;2024-03-02T03:14:30;5.30;99.90
61253;DHT22;47127;47.516;8.596;2024-03-02T03:16:56;5.30;99.90
61253;DHT22;47127;47.516;8.596;2024-03-02T03:19:21;5.30;99.90
61253;DHT22;47127;47.516;8.596;2024-03-02T03:21:47;5.50;99.90
61253;DHT22;47127;47.516;8.596;2024-03-02T03:24:12;5.50;99.90
61253;DHT22;47127;47.516;8.596;2024-03-02T03:26:38;5.50;99.90
61253;DHT22;47127;47.516;8.596;2024-03-02T03:29:03;5.50;99.90
61253;DHT22;47127;47.516;8.596;2024-03-02T03:31:29;5.40;99.90
61253;DHT22;47127;47.516;8.596;2024-03-02T03:33:55;5.40;99.90
61253;DHT22;47127;47.516;8.596;2024-03-02T03:36:20;5.40;99.90
61253;DHT22;47127;47.516;8.596;2024-03-02T03:38:46;5.40;99.90
61253;DHT22;47127;47.516;8.596;2024-03-02T03:41:11;5.50;99.90
61253;DHT22;47127;47.516;8.596;2024-03-02T03:43:37;5.50;99.90
61253;DHT22;47127;47.516;8.596;2024-03-02T03:46:02;5.50;99.90
61253;DHT22;47127;47.516;8.596;2024-03-02T03:48:28;5.50;99.90
61253;DHT22;47127;47.516;8.596;2024-03-02T03:50:56;5.50;99.90
61253;DHT22;47127;47.516;8.596;2024-03-02T03:53:21;5.50;99.90
61253;DHT22;47127;47.516;8.596;2024-03-02T03:55:48;5.50;99.90
61253;DHT22;47127;47.516;8.596;2024-03-02T03:58:15;5.50;99.90
61253;DHT22;47127;47.516;8.596;2024-03-02T04:00:42;5.60;99.90
61253;DHT22;47127;47.516;8.596;2024-03-02T04:03:07;5.60;99.90
61253;DHT22;47127;47.516;8.596;2024-03-02T04:05:33;5.50;99.90
61253;DHT22;47127;47.516;8.596;2024-03-02T04:07:58;5.60;99.90
61253;DHT22;47127;47.516;8.596;2024-03-02T04:10:24;5.50;99.90
61253;DHT22;47127;47.516;8.596;2024-03-02T04:12:50;5.50;99.90
61253;DHT22;47127;47.516;8.596;2024-03-02T04:15:16;5.40;99.90
61253;DHT22;47127;47.516;8.596;2024-03-02T04:17:41;5.30;99.90
61253;DHT22;47127;47.516;8.596;2024-03-02T04:20:07;5.30;99.90
61253;DHT22;47127;47.516;8.596;2024-03-02T04:22:33;5.40;99.90
61253;DHT22;47127;47.516;8.596;2024-03-02T04:25:00;5.50;99.90
61253;DHT22;47127;47.516;8.596;2024-03-02T04:27:25;5.40;99.90
61253;DHT22;47127;47.516;8.596;2024-03-02T04:29:51;5.40;99.90
61253;DHT22;47127;47.516;8.596;2024-03-02T04:32:17;5.40;99.90
61253;DHT22;47127;47.516;8.596;2024-03-02T04:34:42;5.40;99.90
61253;DHT22;47127;47.516;8.596;2024-03-02T04:37:08;5.50;99.90
61253;DHT22;47127;47.516;8.596;2024-03-02T04:39:35;5.60;99.90
61253;DHT22;47127;47.516;8.596;2024-03-02T04:42:01;5.50;99.90
61253;DHT22;47127;47.516;8.596;2024-03-02T04:44:26;5.60;99.90
61253;DHT22;47127;47.516;8.596;2024-03-02T04:46:52;5.60;99.90
61253;DHT22;47127;47.516;8.596;2024-03-02T04:49:17;5.70;99.90
61253;DHT22;47127;47.516;8.596;2024-03-02T04:51:43;5.70;99.90
61253;DHT22;47127;47.516;8.596;2024-03-02T04:54:08;5.80;99.90
61253;DHT22;47127;47.516;8.596;2024-03-02T04:56:34;5.70;99.90
61253;DHT22;47127;47.516;8.596;2024-03-02T04:59:10;5.70;99.90
61253;DHT22;47127;47.516;8.596;2024-03-02T05:01:35;5.60;99.90
61253;DHT22;47127;47.516;8.596;2024-03-02T05:04:01;5.60;99.90
61253;DHT22;47127;47.516;8.596;2024-03-02T05:06:26;5.50;99.90
61253;DHT22;47127;47.516;8.596;2024-03-02T05:08:52;5.40;99.90
61253;DHT22;47127;47.516;8.596;2024-03-02T05:11:17;5.40;99.90
61253;DHT22;47127;47.516;8.596;2024-03-02T05:14:15;5.40;99.90
61253;DHT22;47127;47.516;8.596;2024-03-02T05:16:40;5.40;99.90
61253;DHT22;47127;47.516;8.596;2024-03-02T05:19:07;5.50;99.90
61253;DHT22;47127;47.516;8.596;2024-03-02T05:21:33;5.60;99.90
61253;DHT22;47127;47.516;8.596;2024-03-02T05:23:59;5.60;99.90
61253;DHT22;47127;47.516;8.596;2024-03-02T05:26:25;5.60;99.90
61253;DHT22;47127;47.516;8.596;2024-03-02T05:28:50;5.60;99.90
61253;DHT22;47127;47.516;8.596;2024-03-02T05:31:16;5.50;99.90
61253;DHT22;47127;47.516;8.596;2024-03-02T05:33:42;5.50;99.90
61253;DHT22;47127;47.516;8.596;2024-03-02T05:36:08;5.50;99.90
61253;DHT22;47127;47.516;8.596;2024-03-02T05:38:37;5.50;99.90
61253;DHT22;47127;47.516;8.596;2024-03-02T05:41:03;5.40;99.90
61253;DHT22;47127;47.516;8.596;2024-03-02T05:43:28;5.40;99.90
61253;DHT22;47127;47.516;8.596;2024-03-02T05:45:54;5.50;99.90
61253;DHT22;47127;47.516;8.596;2024-03-02T05:48:20;5.50;99.90
61253;DHT22;47127;47.516;8.596;2024-03-02T05:50:45;5.60;99.90
61253;DHT22;47127;47.516;8.596;2024-03-02T05:53:11;5.60;99.90
61253;DHT22;47127;47.516;8.596;2024-03-02T05:55:36;5.60;99.90
61253;DHT22;47127;47.516;8.596;2024-03-02T05:58:02;5.60;99.90
61253;DHT22;47127;47.516;8.596;2024-03-02T06:00:46;5.60;99.90
61253;DHT22;47127;47.516;8.596;2024-03-02T06:03:11;5.60;99.90
61253;DHT22;47127;47.516;8.596;2024-03-02T06:05:37;5.50;99.90
61253;DHT22;47127;47.516;8.596;2024-03-02T06:08:03;5.50;99.90
61253;DHT22;47127;47.516;8.596;2024-03-02T06:10:28;5.50;99.90
61253;DHT22;47127;47.516;8.596;2024-03-02T06:12:54;5.50;99.90
61253;DHT22;47127;47.516;8.596;2024-03-02T06:15:19;5.40;99.90
61253;DHT22;47127;47.516;8.596;2024-03-02T06:17:45;5.30;99.90
61253;DHT22;47127;47.516;8.596;2024-03-02T06:20:11;5.20;99.90
61253;DHT22;47127;47.516;8.596;2024-03-02T06:22:36;5.20;99.90
61253;DHT22;47127;47.516;8.596;2024-03-02T06:25:02;5.10;99.90
61253;DHT22;47127;47.516;8.596;2024-03-02T06:27:28;5.00;99.90
61253;DHT22;47127;47.516;8.596;2024-03-02T06:29:53;5.10;99.90
61253;DHT22;47127;47.516;8.596;2024-03-02T06:32:20;5.20;99.90
61253;DHT22;47127;47.516;8.596;2024-03-02T06:34:45;5.20;99.90
61253;DHT22;47127;47.516;8.596;2024-03-02T06:37:11;5.10;99.90
61253;DHT22;47127;47.516;8.596;2024-03-02T06:39:36;5.10;99.90
61253;DHT22;47127;47.516;8.596;2024-03-02T06:42:02;5.10;99.90
61253;DHT22;47127;47.516;8.596;2024-03-02T06:44:29;5.10;99.90
61253;DHT22;47127;47.516;8.596;2024-03-02T06:46:55;5.10;99.90
61253;DHT22;47127;47.516;8.596;2024-03-02T06:49:20;5.10;99.90
61253;DHT22;47127;47.516;8.596;2024-03-02T06:51:46;5.00;99.90
61253;DHT22;47127;47.516;8.596;2024-03-02T06:54:11;4.90;99.90
61253;DHT22;47127;47.516;8.596;2024-03-02T06:56:37;4.80;99.90
61253;DHT22;47127;47.516;8.596;2024-03-02T06:59:04;4.90;99.90
61253;DHT22;47127;47.516;8.596;2024-03-02T07:01:29;4.70;99.90
61253;DHT22;47127;47.516;8.596;2024-03-02T07:03:55;4.50;99.90
61253;DHT22;47127;47.516;8.596;2024-03-02T07:06:20;4.70;99.90
61253;DHT22;47127;47.516;8.596;2024-03-02T07:08:46;4.80;99.90
61253;DHT22;47127;47.516;8.596;2024-03-02T07:11:11;4.90;99.90
61253;DHT22;47127;47.516;8.596;2024-03-02T07:13:37;4.90;99.90
61253;DHT22;47127;47.516;8.596;2024-03-02T07:16:03;4.90;99.90
61253;DHT22;47127;47.516;8.596;2024-03-02T07:18:29;4.80;99.90
61253;DHT22;47127;47.516;8.596;2024-03-02T07:20:56;4.90;99.90
61253;DHT22;47127;47.516;8.596;2024-03-02T07:23:23;5.00;99.90
61253;DHT22;47127;47.516;8.596;2024-03-02T07:25:52;5.10;99.90
61253;DHT22;47127;47.516;8.596;2024-03-02T07:28:20;5.30;99.90
61253;DHT22;47127;47.516;8.596;2024-03-02T07:30:46;5.40;99.90
61253;DHT22;47127;47.516;8.596;2024-03-02T07:33:11;5.40;99.90
61253;DHT22;47127;47.516;8.596;2024-03-02T07:35:37;5.60;99.90
61253;DHT22;47127;47.516;8.596;2024-03-02T07:38:03;5.60;99.90
61253;DHT22;47127;47.516;8.596;2024-03-02T07:40:29;5.60;99.90
61253;DHT22;47127;47.516;8.596;2024-03-02T07:42:55;5.50;99.90
61253;DHT22;47127;47.516;8.596;2024-03-02T07:45:20;5.50;99.90
61253;DHT22;47127;47.516;8.596;2024-03-02T07:47:46;5.50;99.90
61253;DHT22;47127;47.516;8.596;2024-03-02T07:50:12;5.50;99.90
61253;DHT22;47127;47.516;8.596;2024-03-02T07:52:37;5.50;99.90
61253;DHT22;47127;47.516;8.596;2024-03-02T07:55:03;5.50;99.90
61253;DHT22;47127;47.516;8.596;2024-03-02T07:57:29;5.50;99.90
61253;DHT22;47127;47.516;8.596;2024-03-02T07:59:55;5.50;99.90
61253;DHT22;47127;47.516;8.596;2024-03-02T08:02:20;5.50;99.90
61253;DHT22;47127;47.516;8.596;2024-03-02T08:04:47;5.60;99.90
61253;DHT22;47127;47.516;8.596;2024-03-02T08:07:12;5.50;99.90
61253;DHT22;47127;47.516;8.596;2024-03-02T08:09:38;5.50;99.90
61253;DHT22;47127;47.516;8.596;2024-03-02T08:12:04;5.60;99.90
61253;DHT22;47127;47.516;8.596;2024-03-02T08:14:29;5.50;99.90
61253;DHT22;47127;47.516;8.596;2024-03-02T08:16:55;5.60;99.90
61253;DHT22;47127;47.516;8.596;2024-03-02T08:19:20;5.50;99.90
61253;DHT22;47127;47.516;8.596;2024-03-02T08:21:46;5.50;99.90
61253;DHT22;47127;47.516;8.596;2024-03-02T08:24:12;5.50;99.90
61253;DHT22;47127;47.516;8.596;2024-03-02T08:26:37;5.50;99.90
61253;DHT22;47127;47.516;8.596;2024-03-02T08:29:03;5.60;99.90
61253;DHT22;47127;47.516;8.596;2024-03-02T08:31:29;5.50;99.90
61253;DHT22;47127;47.516;8.596;2024-03-02T08:33:55;5.70;99.90
61253;DHT22;47127;47.516;8.596;2024-03-02T08:36:22;5.90;99.90
61253;DHT22;47127;47.516;8.596;2024-03-02T08:38:49;5.90;99.90
61253;DHT22;47127;47.516;8.596;2024-03-02T08:41:15;5.80;99.90
61253;DHT22;47127;47.516;8.596;2024-03-02T08:43:42;5.70;99.90
61253;DHT22;47127;47.516;8.596;2024-03-02T08:46:08;5.80;99.90
61253;DHT22;47127;47.516;8.596;2024-03-02T08:48:34;5.80;99.90
61253;DHT22;47127;47.516;8.596;2024-03-02T08:51:00;5.70;99.90
61253;DHT22;47127;47.516;8.596;2024-03-02T08:53:25;5.70;99.90
61253;DHT22;47127;47.516;8.596;2024-03-02T08:55:53;5.70;99.90
61253;DHT22;47127;47.516;8.596;2024-03-02T08:58:20;5.60;99.90
61253;DHT22;47127;47.516;8.596;2024-03-02T09:00:47;5.60;99.90
61253;DHT22;47127;47.516;8.596;2024-03-02T09:03:12;5.60;99.90
61253;DHT22;47127;47.516;8.596;2024-03-02T09:05:38;5.60;99.90
61253;DHT22;47127;47.516;8.596;2024-03-02T09:08:04;5.60;99.90
61253;DHT22;47127;47.516;8.596;2024-03-02T09:10:29;5.70;99.90
61253;DHT22;47127;47.516;8.596;2024-03-02T09:12:55;5.90;99.90
61253;DHT22;47127;47.516;8.596;2024-03-02T09:15:20;5.90;99.90
61253;DHT22;47127;47.516;8.596;2024-03-02T09:17:46;6.10;99.90
61253;DHT22;47127;47.516;8.596;2024-03-02T09:20:12;6.30;99.90
61253;DHT22;47127;47.516;8.596;2024-03-02T09:22:38;6.40;99.90
61253;DHT22;47127;47.516;8.596;2024-03-02T09:25:04;6.50;99.90
61253;DHT22;47127;47.516;8.596;2024-03-02T09:27:29;6.60;99.90
61253;DHT22;47127;47.516;8.596;2024-03-02T09:29:55;6.60;99.90
61253;DHT22;47127;47.516;8.596;2024-03-02T09:32:20;6.50;99.90
61253;DHT22;47127;47.516;8.596;2024-03-02T09:34:46;6.50;99.90
61253;DHT22;47127;47.516;8.596;2024-03-02T09:37:13;6.60;99.90
61253;DHT22;47127;47.516;8.596;2024-03-02T09:39:39;6.50;99.90
61253;DHT22;47127;47.516;8.596;2024-03-02T09:42:05;6.50;99.90
61253;DHT22;47127;47.516;8.596;2024-03-02T09:44:31;6.50;99.90
61253;DHT22;47127;47.516;8.596;2024-03-02T09:46:57;6.50;99.90
61253;DHT22;47127;47.516;8.596;2024-03-02T09:49:22;6.60;99.90
61253;DHT22;47127;47.516;8.596;2024-03-02T09:51:49;6.60;99.90
61253;DHT22;47127;47.516;8.596;2024-03-02T09:54:16;6.60;99.90
61253;DHT22;47127;47.516;8.596;2024-03-02T09:56:42;6.70;99.90
61253;DHT22;47127;47.516;8.596;2024-03-02T09:59:07;6.80;99.90
61253;DHT22;47127;47.516;8.596;2024-03-02T10:01:33;7.00;99.90
61253;DHT22;47127;47.516;8.596;2024-03-02T10:03:59;7.00;99.90
61253;DHT22;47127;47.516;8.596;2024-03-02T10:06:27;7.10;99.90
61253;DHT22;47127;47.516;8.596;2024-03-02T10:08:54;7.20;99.90
61253;DHT22;47127;47.516;8.596;2024-03-02T10:11:30;7.40;99.90
61253;DHT22;47127;47.516;8.596;2024-03-02T10:14:04;7.70;99.90
61253;DHT22;47127;47.516;8.596;2024-03-02T10:16:34;8.00;99.90
61253;DHT22;47127;47.516;8.596;2024-03-02T10:19:15;8.10;99.90
61253;DHT22;47127;47.516;8.596;2024-03-02T10:21:42;8.30;99.90
61253;DHT22;47127;47.516;8.596;2024-03-02T10:24:07;8.30;99.90
61253;DHT22;47127;47.516;8.596;2024-03-02T10:26:33;8.20;99.90
61253;DHT22;47127;47.516;8.596;2024-03-02T10:28:59;8.10;99.90
61253;DHT22;47127;47.516;8.596;2024-03-02T10:31:25;8.30;99.90
61253;DHT22;47127;47.516;8.596;2024-03-02T10:33:54;8.40;99.90
61253;DHT22;47127;47.516;8.596;2024-03-02T10:36:20;8.60;99.90
61253;DHT22;47127;47.516;8.596;2024-03-02T10:38:46;8.80;99.90
61253;DHT22;47127;47.516;8.596;2024-03-02T10:41:17;8.90;99.90
61253;DHT22;47127;47.516;8.596;2024-03-02T10:43:44;8.80;99.90
61253;DHT22;47127;47.516;8.596;2024-03-02T10:46:11;8.80;99.90
61253;DHT22;47127;47.516;8.596;2024-03-02T10:48:39;8.70;99.90
61253;DHT22;47127;47.516;8.596;2024-03-02T10:51:06;8.80;99.90
61253;DHT22;47127;47.516;8.596;2024-03-02T10:53:32;8.70;99.90
61253;DHT22;47127;47.516;8.596;2024-03-02T10:55:59;8.80;99.90
61253;DHT22;47127;47.516;8.596;2024-03-02T10:58:31;9.00;99.90
61253;DHT22;47127;47.516;8.596;2024-03-02T11:01:02;9.40;99.90
61253;DHT22;47127;47.516;8.596;2024-03-02T11:03:30;9.50;99.90
61253;DHT22;47127;47.516;8.596;2024-03-02T11:05:59;9.60;99.90
61253;DHT22;47127;47.516;8.596;2024-03-02T11:08:27;9.70;99.90
61253;DHT22;47127;47.516;8.596;2024-03-02T11:11:06;10.00;99.90
61253;DHT22;47127;47.516;8.596;2024-03-02T11:13:33;10.10;99.90
61253;DHT22;47127;47.516;8.596;2024-03-02T11:16:05;10.10;99.90
61253;DHT22;47127;47.516;8.596;2024-03-02T11:18:32;10.30;99.90
61253;DHT22;47127;47.516;8.596;2024-03-02T11:20:59;10.40;99.90
61253;DHT22;47127;47.516;8.596;2024-03-02T11:23:34;10.50;99.90
61253;DHT22;47127;47.516;8.596;2024-03-02T11:28:47;10.70;99.90
61253;DHT22;47127;47.516;8.596;2024-03-02T11:31:14;10.90;99.90
61253;DHT22;47127;47.516;8.596;2024-03-02T11:33:39;11.00;99.90
61253;DHT22;47127;47.516;8.596;2024-03-02T11:36:09;11.10;99.90
61253;DHT22;47127;47.516;8.596;2024-03-02T11:38:35;11.10;99.90
61253;DHT22;47127;47.516;8.596;2024-03-02T11:41:07;11.10;99.90
61253;DHT22;47127;47.516;8.596;2024-03-02T11:43:39;11.30;99.90
61253;DHT22;47127;47.516;8.596;2024-03-02T11:46:05;11.70;99.90
61253;DHT22;47127;47.516;8.596;2024-03-02T11:48:36;11.70;99.90
61253;DHT22;47127;47.516;8.596;2024-03-02T11:51:02;11.60;99.90
61253;DHT22;47127;47.516;8.596;2024-03-02T11:53:28;11.70;99.90
61253;DHT22;47127;47.516;8.596;2024-03-02T11:55:55;11.60;99.90
61253;DHT22;47127;47.516;8.596;2024-03-02T11:58:21;11.50;99.90
61253;DHT22;47127;47.516;8.596;2024-03-02T12:00:56;11.70;99.90
61253;DHT22;47127;47.516;8.596;2024-03-02T12:03:25;11.80;99.90
61253;DHT22;47127;47.516;8.596;2024-03-02T12:05:53;11.80;99.90
61253;DHT22;47127;47.516;8.596;2024-03-02T12:08:19;11.80;99.90
61253;DHT22;47127;47.516;8.596;2024-03-02T12:11:00;12.00;99.90
61253;DHT22;47127;47.516;8.596;2024-03-02T12:13:26;12.00;99.90
61253;DHT22;47127;47.516;8.596;2024-03-02T12:15:54;12.00;99.90
61253;DHT22;47127;47.516;8.596;2024-03-02T12:18:22;12.10;99.90
61253;DHT22;47127;47.516;8.596;2024-03-02T12:20:49;12.10;99.90
61253;DHT22;47127;47.516;8.596;2024-03-02T12:23:18;12.20;99.90
61253;DHT22;47127;47.516;8.596;2024-03-02T12:25:44;12.30;99.90
61253;DHT22;47127;47.516;8.596;2024-03-02T12:28:09;12.50;99.90
61253;DHT22;47127;47.516;8.596;2024-03-02T12:30:35;12.70;99.90
61253;DHT22;47127;47.516;8.596;2024-03-02T12:33:01;12.90;99.90
61253;DHT22;47127;47.516;8.596;2024-03-02T12:35:27;13.10;99.90
61253;DHT22;47127;47.516;8.596;2024-03-02T12:37:53;13.20;99.90
61253;DHT22;47127;47.516;8.596;2024-03-02T12:40:20;13.30;99.90
61253;DHT22;47127;47.516;8.596;2024-03-02T12:42:47;13.20;99.90
61253;DHT22;47127;47.516;8.596;2024-03-02T12:45:14;13.10;99.90
61253;DHT22;47127;47.516;8.596;2024-03-02T12:47:40;13.50;99.90
61253;DHT22;47127;47.516;8.596;2024-03-02T12:50:07;13.50;99.90
61253;DHT22;47127;47.516;8.596;2024-03-02T12:52:33;13.30;99.90
61253;DHT22;47127;47.516;8.596;2024-03-02T12:55:04;13.20;99.90
61253;DHT22;47127;47.516;8.596;2024-03-02T12:57:31;13.30;99.90
61253;DHT22;47127;47.516;8.596;2024-03-02T13:00:04;13.40;99.90
61253;DHT22;47127;47.516;8.596;2024-03-02T13:02:40;13.40;99.90
61253;DHT22;47127;47.516;8.596;2024-03-02T13:05:06;13.30;99.90
61253;DHT22;47127;47.516;8.596;2024-03-02T13:07:36;13.40;99.90
61253;DHT22;47127;47.516;8.596;2024-03-02T13:10:02;13.50;99.90
61253;DHT22;47127;47.516;8.596;2024-03-02T13:12:30;13.60;99.90
61253;DHT22;47127;47.516;8.596;2024-03-02T13:14:57;13.50;99.90
61253;DHT22;47127;47.516;8.596;2024-03-02T13:17:23;13.40;99.90
61253;DHT22;47127;47.516;8.596;2024-03-02T13:19:56;13.30;99.90
61253;DHT22;47127;47.516;8.596;2024-03-02T13:22:23;13.40;99.90
61253;DHT22;47127;47.516;8.596;2024-03-02T13:24:52;13.40;99.90
61253;DHT22;47127;47.516;8.596;2024-03-02T13:27:19;13.60;99.90
61253;DHT22;47127;47.516;8.596;2024-03-02T13:29:46;13.70;99.90
61253;DHT22;47127;47.516;8.596;2024-03-02T13:32:13;13.70;99.90
61253;DHT22;47127;47.516;8.596;2024-03-02T13:34:39;13.70;99.90
61253;DHT22;47127;47.516;8.596;2024-03-02T13:37:04;13.80;99.90
61253;DHT22;47127;47.516;8.596;2024-03-02T13:39:31;14.10;99.90
61253;DHT22;47127;47.516;8.596;2024-03-02T13:41:58;14.10;99.90
61253;DHT22;47127;47.516;8.596;2024-03-02T13:44:30;14.10;99.70
61253;DHT22;47127;47.516;8.596;2024-03-02T13:46:56;14.00;99.90
61253;DHT22;47127;47.516;8.596;2024-03-02T13:49:21;13.90;99.90
61253;DHT22;47127;47.516;8.596;2024-03-02T13:51:48;13.90;99.90
61253;DHT22;47127;47.516;8.596;2024-03-02T13:54:14;13.60;99.90
61253;DHT22;47127;47.516;8.596;2024-03-02T13:56:39;13.50;99.90
61253;DHT22;47127;47.516;8.596;2024-03-02T13:59:06;13.40;99.90
61253;DHT22;47127;47.516;8.596;2024-03-02T14:01:32;13.30;99.90
61253;DHT22;47127;47.516;8.596;2024-03-02T14:03:58;13.20;99.90
61253;DHT22;47127;47.516;8.596;2024-03-02T14:06:24;13.10;99.90
61253;DHT22;47127;47.516;8.596;2024-03-02T14:08:52;13.20;99.90
61253;DHT22;47127;47.516;8.596;2024-03-02T14:11:18;13.10;99.90
61253;DHT22;47127;47.516;8.596;2024-03-02T14:13:44;13.00;99.90
61253;DHT22;47127;47.516;8.596;2024-03-02T14:16:15;13.00;99.90
61253;DHT22;47127;47.516;8.596;2024-03-02T14:18:40;13.10;99.90
61253;DHT22;47127;47.516;8.596;2024-03-02T14:21:06;13.10;99.90
61253;DHT22;47127;47.516;8.596;2024-03-02T14:23:32;13.00;99.90
61253;DHT22;47127;47.516;8.596;2024-03-02T14:25:57;13.10;99.90
61253;DHT22;47127;47.516;8.596;2024-03-02T14:28:24;13.10;99.90
61253;DHT22;47127;47.516;8.596;2024-03-02T14:30:50;13.00;99.90
61253;DHT22;47127;47.516;8.596;2024-03-02T14:33:16;12.90;99.90
61253;DHT22;47127;47.516;8.596;2024-03-02T14:35:44;12.80;99.90
61253;DHT22;47127;47.516;8.596;2024-03-02T14:38:09;12.70;99.90
61253;DHT22;47127;47.516;8.596;2024-03-02T14:40:35;12.80;99.90
61253;DHT22;47127;47.516;8.596;2024-03-02T14:43:01;12.80;99.90
61253;DHT22;47127;47.516;8.596;2024-03-02T14:45:26;12.70;99.90
61253;DHT22;47127;47.516;8.596;2024-03-02T14:47:52;12.70;99.90
61253;DHT22;47127;47.516;8.596;2024-03-02T14:50:18;12.60;99.90
61253;DHT22;47127;47.516;8.596;2024-03-02T14:52:44;12.70;99.90
61253;DHT22;47127;47.516;8.596;2024-03-02T14:55:11;12.60;99.90
61253;DHT22;47127;47.516;8.596;2024-03-02T14:57:36;12.60;99.90
61253;DHT22;47127;47.516;8.596;2024-03-02T15:00:02;12.60;99.90
61253;DHT22;47127;47.516;8.596;2024-03-02T15:02:28;12.50;99.90
61253;DHT22;47127;47.516;8.596;2024-03-02T15:04:54;12.60;99.90
61253;DHT22;47127;47.516;8.596;2024-03-02T15:07:20;12.50;99.90
61253;DHT22;47127;47.516;8.596;2024-03-02T15:09:45;12.50;99.90
61253;DHT22;47127;47.516;8.596;2024-03-02T15:12:11;12.50;99.90
61253;DHT22;47127;47.516;8.596;2024-03-02T15:14:38;12.50;99.90
61253;DHT22;47127;47.516;8.596;2024-03-02T15:17:12;12.50;99.90
61253;DHT22;47127;47.516;8.596;2024-03-02T15:19:37;12.50;99.90
61253;DHT22;47127;47.516;8.596;2024-03-02T15:22:03;12.50;99.90
61253;DHT22;47127;47.516;8.596;2024-03-02T15:24:29;12.50;99.90
61253;DHT22;47127;47.516;8.596;2024-03-02T15:26:54;12.40;99.90
61253;DHT22;47127;47.516;8.596;2024-03-02T15:29:20;12.40;99.90
61253;DHT22;47127;47.516;8.596;2024-03-02T15:31:47;12.30;99.90
61253;DHT22;47127;47.516;8.596;2024-03-02T15:34:13;12.30;99.90
61253;DHT22;47127;47.516;8.596;2024-03-02T15:36:38;12.30;99.90
61253;DHT22;47127;47.516;8.596;2024-03-02T15:39:04;12.30;99.90
61253;DHT22;47127;47.516;8.596;2024-03-02T15:41:34;12.40;99.90
61253;DHT22;47127;47.516;8.596;2024-03-02T15:43:59;12.30;99.90
61253;DHT22;47127;47.516;8.596;2024-03-02T15:46:25;12.30;99.90